Time;durP1;ratioP1;P1;durP2;ratioP2;P2;SDS_P1;SDS_P2;PMS_P1;PMS_P2;Temp;Humidity;BMP_temperature;BMP_pressure;BME280_temperature;BME280_humidity;BME280_pressure;Samples;Min_cycle;Max_cycle;Signal;HPM_P1;HPM_P2
2022/10/06 00:00:43;;;;;;;10.57;2.03;;;13.20;99.90;;;;;;5002020;28;20046;-73
2022/10/06 00:03:09;;;;;;;14.52;2.28;;;13.10;99.90;;;;;;5002778;28;20069;-72
2022/10/06 00:05:35;;;;;;;9.95;2.58;;;13.10;99.90;;;;;;5000025;28;20037;-72
2022/10/06 00:08:01;;;;;;;13.57;2.22;;;13.20;99.90;;;;;;4996924;28;20143;-72
2022/10/06 00:10:28;;;;;;;13.95;2.42;;;13.10;99.90;;;;;;5000774;28;20046;-73
2022/10/06 00:12:53;;;;;;;12.55;2.80;;;13.10;99.90;;;;;;5000543;28;20503;-72
2022/10/06 00:15:25;;;;;;;12.85;2.50;;;13.20;99.90;;;;;;4995574;28;20033;-73
2022/10/06 00:17:51;;;;;;;12.00;2.42;;;13.20;99.90;;;;;;4997573;28;20046;-72
2022/10/06 00:20:17;;;;;;;12.52;2.28;;;13.20;99.90;;;;;;4999107;28;20049;-72
2022/10/06 00:22:45;;;;;;;12.82;2.20;;;13.10;99.90;;;;;;4997549;28;20109;-72
2022/10/06 00:25:14;;;;;;;11.30;2.15;;;13.10;99.90;;;;;;4997870;28;20050;-72
2022/10/06 00:27:42;;;;;;;10.27;2.13;;;13.10;99.90;;;;;;4998974;28;20077;-72
2022/10/06 00:30:11;;;;;;;13.95;2.45;;;13.10;99.90;;;;;;4999783;28;20056;-72
2022/10/06 00:32:38;;;;;;;14.48;2.17;;;13.10;99.90;;;;;;4998622;28;20509;-70
2022/10/06 00:35:05;;;;;;;8.52;1.85;;;13.10;99.90;;;;;;4999481;28;20536;-72
2022/10/06 00:37:35;;;;;;;9.70;2.28;;;13.20;99.90;;;;;;4995973;28;20038;-71
2022/10/06 00:40:07;;;;;;;16.02;3.15;;;13.20;99.90;;;;;;4997002;28;20050;-71
2022/10/06 00:42:33;;;;;;;11.15;2.83;;;13.20;99.90;;;;;;4998256;28;20042;-71
2022/10/06 00:45:03;;;;;;;8.52;2.53;;;13.20;99.90;;;;;;4995984;28;20425;-71
2022/10/06 00:47:31;;;;;;;16.63;2.65;;;13.10;99.90;;;;;;4998687;28;20114;-71
2022/10/06 00:49:59;;;;;;;12.40;2.67;;;13.10;99.90;;;;;;5000275;28;20133;-70
2022/10/06 00:52:29;;;;;;;14.15;2.80;;;13.10;99.90;;;;;;5000966;28;20116;-71
2022/10/06 00:54:57;;;;;;;11.63;1.98;;;13.10;99.90;;;;;;5001473;28;20058;-72
2022/10/06 00:57:25;;;;;;;14.98;2.53;;;13.00;99.90;;;;;;5001854;28;20046;-71
2022/10/06 00:59:51;;;;;;;18.42;2.28;;;13.00;99.90;;;;;;5004910;28;20053;-71
2022/10/06 01:02:33;;;;;;;13.90;2.58;;;13.00;99.90;;;;;;5001349;28;20042;-72
2022/10/06 01:05:02;;;;;;;10.90;2.63;;;13.00;99.90;;;;;;5005764;28;20054;-71
2022/10/06 01:07:28;;;;;;;9.32;2.00;;;13.00;99.90;;;;;;4999161;28;20041;-72
2022/10/06 01:09:56;;;;;;;14.52;2.53;;;13.00;99.90;;;;;;5003036;28;20050;-71
2022/10/06 01:12:22;;;;;;;16.35;2.50;;;12.90;99.90;;;;;;5001169;28;20094;-72
2022/10/06 01:14:48;;;;;;;19.40;2.42;;;12.90;99.90;;;;;;5002308;28;20396;-72
2022/10/06 01:17:38;;;;;;;13.55;2.38;;;12.80;99.90;;;;;;4995223;28;20043;-72
2022/10/06 01:20:08;;;;;;;14.35;2.83;;;12.70;99.90;;;;;;5005431;28;20065;-71
2022/10/06 01:22:42;;;;;;;16.52;2.67;;;12.80;99.90;;;;;;4996740;28;20567;-72
2022/10/06 01:25:10;;;;;;;12.10;2.25;;;12.80;99.90;;;;;;4999995;28;20038;-72
2022/10/06 01:27:37;;;;;;;9.65;2.40;;;12.70;99.90;;;;;;5000512;28;20085;-72
2022/10/06 01:30:07;;;;;;;12.88;2.50;;;12.70;99.90;;;;;;4995902;28;20513;-71
2022/10/06 01:32:35;;;;;;;13.13;2.03;;;12.80;99.90;;;;;;5000899;28;20130;-72
2022/10/06 01:35:01;;;;;;;15.63;2.40;;;12.80;99.90;;;;;;5001960;28;20140;-72
2022/10/06 01:37:27;;;;;;;15.65;2.88;;;12.80;99.90;;;;;;5002030;28;20564;-72
2022/10/06 01:39:53;;;;;;;9.63;1.70;;;12.80;99.90;;;;;;5002186;28;20449;-72
2022/10/06 01:42:18;;;;;;;13.43;2.15;;;12.80;99.90;;;;;;4999135;28;20050;-71
2022/10/06 01:44:44;;;;;;;11.55;2.20;;;12.70;99.90;;;;;;5007584;28;20049;-72
2022/10/06 01:47:09;;;;;;;14.38;2.63;;;12.70;99.90;;;;;;4999414;28;20046;-72
2022/10/06 01:49:36;;;;;;;14.57;2.55;;;12.60;99.90;;;;;;5003779;28;20385;-71
2022/10/06 01:52:03;;;;;;;8.68;1.92;;;12.60;99.90;;;;;;5013429;28;20411;-72
2022/10/06 01:54:29;;;;;;;14.80;2.55;;;12.60;99.90;;;;;;5004813;28;20621;-72
2022/10/06 01:56:57;;;;;;;13.25;2.72;;;12.50;99.90;;;;;;4991101;28;20042;-72
2022/10/06 01:59:23;;;;;;;14.35;2.05;;;12.50;99.90;;;;;;4990369;28;20053;-72
2022/10/06 02:01:49;;;;;;;15.35;2.67;;;12.50;99.90;;;;;;5002324;28;20529;-72
2022/10/06 02:04:15;;;;;;;15.32;2.63;;;12.50;99.90;;;;;;5000950;28;20517;-72
2022/10/06 02:06:41;;;;;;;13.48;2.33;;;12.50;99.90;;;;;;5002470;28;20041;-73
2022/10/06 02:09:07;;;;;;;13.80;1.95;;;12.50;99.90;;;;;;5000038;28;20048;-72
2022/10/06 02:11:32;;;;;;;11.40;2.38;;;12.50;99.90;;;;;;4997225;28;20050;-71
2022/10/06 02:14:00;;;;;;;11.70;2.33;;;12.50;99.90;;;;;;4996177;28;20076;-72
2022/10/06 02:16:27;;;;;;;14.10;2.30;;;12.50;99.90;;;;;;4999684;28;20052;-72
2022/10/06 02:18:53;;;;;;;19.02;3.50;;;12.60;99.90;;;;;;5001815;28;20097;-72
2022/10/06 02:21:21;;;;;;;14.00;2.33;;;12.60;99.90;;;;;;5003871;28;20129;-73
2022/10/06 02:23:47;;;;;;;14.15;2.35;;;12.60;99.90;;;;;;5001724;28;20520;-72
2022/10/06 02:26:16;;;;;;;9.43;2.20;;;12.70;99.90;;;;;;4999527;28;20141;-73
2022/10/06 02:28:45;;;;;;;14.45;2.75;;;12.60;99.90;;;;;;5003774;28;20070;-72
2022/10/06 02:31:13;;;;;;;7.45;2.20;;;12.60;99.90;;;;;;4996417;28;20076;-72
2022/10/06 02:33:39;;;;;;;16.95;2.22;;;12.60;99.90;;;;;;4994682;28;20048;-72
2022/10/06 02:36:06;;;;;;;11.45;2.00;;;12.50;99.90;;;;;;5002008;28;20505;-72
2022/10/06 02:38:32;;;;;;;14.02;2.33;;;12.50;99.90;;;;;;5003363;28;20041;-72
2022/10/06 02:40:58;;;;;;;13.27;2.58;;;12.50;99.90;;;;;;5004628;28;20042;-72
2022/10/06 02:43:28;;;;;;;11.65;2.67;;;12.50;99.90;;;;;;4995879;28;20061;-71
2022/10/06 02:46:04;;;;;;;12.63;2.30;;;12.60;99.90;;;;;;4990445;28;20046;-71
2022/10/06 02:48:32;;;;;;;13.70;2.20;;;12.70;99.90;;;;;;5002336;28;20104;-72
2022/10/06 02:51:00;;;;;;;15.50;2.40;;;12.70;99.90;;;;;;5000487;28;20101;-72
2022/10/06 02:53:27;;;;;;;9.63;2.42;;;12.80;99.90;;;;;;5000612;28;20583;-72
2022/10/06 02:56:11;;;;;;;13.52;2.05;;;12.80;99.90;;;;;;5004270;28;20396;-72
2022/10/06 02:58:41;;;;;;;14.55;2.20;;;12.80;99.90;;;;;;5001038;28;20044;-72
2022/10/06 03:01:13;;;;;;;11.18;2.30;;;12.70;99.90;;;;;;5000658;28;20042;-72
2022/10/06 03:03:39;;;;;;;11.88;2.40;;;12.70;99.90;;;;;;4998445;28;20049;-73
2022/10/06 03:06:21;;;;;;;15.10;2.78;;;12.70;99.90;;;;;;4998249;28;20658;-73
2022/10/06 03:08:58;;;;;;;15.57;3.90;;;12.60;99.90;;;;;;4998837;28;20448;-73
2022/10/06 03:11:28;;;;;;;13.50;2.00;;;12.60;99.90;;;;;;4998647;28;20050;-73
2022/10/06 03:13:54;;;;;;;11.23;2.38;;;12.60;99.90;;;;;;4994098;28;20053;-73
2022/10/06 03:16:25;;;;;;;12.23;2.30;;;12.50;99.90;;;;;;4979315;28;20042;-72
2022/10/06 03:18:54;;;;;;;12.60;2.70;;;12.50;99.90;;;;;;5009809;28;20385;-73
2022/10/06 03:21:29;;;;;;;12.95;2.30;;;12.40;99.90;;;;;;5003720;28;20069;-72
2022/10/06 03:23:56;;;;;;;16.55;2.33;;;12.40;99.90;;;;;;4994908;28;20038;-74
2022/10/06 03:26:30;;;;;;;9.98;2.10;;;12.30;99.90;;;;;;4998690;28;20045;-73
2022/10/06 03:28:56;;;;;;;10.93;2.22;;;12.20;99.90;;;;;;5000472;28;20046;-73
2022/10/06 03:31:22;;;;;;;15.07;2.20;;;12.20;99.90;;;;;;5000524;28;20104;-73
2022/10/06 03:33:49;;;;;;;15.38;2.58;;;12.20;99.90;;;;;;4999894;28;20054;-73
2022/10/06 03:36:18;;;;;;;12.05;2.58;;;12.20;99.90;;;;;;4998097;28;20038;-72
2022/10/06 03:38:44;;;;;;;18.45;2.60;;;12.20;99.90;;;;;;4992464;28;20404;-72
2022/10/06 03:41:12;;;;;;;10.20;2.45;;;12.10;99.90;;;;;;4998871;28;20072;-73
2022/10/06 03:43:39;;;;;;;12.95;2.38;;;12.10;99.90;;;;;;4999274;28;20116;-73
2022/10/06 03:46:06;;;;;;;9.98;2.00;;;12.10;99.90;;;;;;4999754;28;20037;-73
2022/10/06 03:48:34;;;;;;;11.23;2.35;;;12.20;99.90;;;;;;5010132;28;20488;-73
2022/10/06 03:51:04;;;;;;;15.07;2.35;;;12.10;99.90;;;;;;5002591;28;20389;-74
2022/10/06 03:53:30;;;;;;;13.95;2.40;;;12.00;99.90;;;;;;4982775;28;20069;-73
2022/10/06 03:56:05;;;;;;;10.07;2.10;;;12.00;99.90;;;;;;4992587;28;20056;-73
2022/10/06 03:58:33;;;;;;;8.25;1.75;;;12.10;99.90;;;;;;4990401;28;20053;-72
2022/10/06 04:01:11;;;;;;;14.52;2.17;;;12.00;99.90;;;;;;4995069;28;20615;-73
2022/10/06 04:03:37;;;;;;;8.80;2.15;;;12.00;99.90;;;;;;4999111;28;20046;-72
2022/10/06 04:06:05;;;;;;;13.60;2.42;;;12.00;99.90;;;;;;4996853;28;20480;-72
2022/10/06 04:08:33;;;;;;;15.75;2.95;;;12.00;99.90;;;;;;4997008;28;20101;-73
2022/10/06 04:11:10;;;;;;;11.50;2.25;;;12.00;99.90;;;;;;4997464;28;20062;-73
2022/10/06 04:13:37;;;;;;;11.00;2.85;;;12.10;99.90;;;;;;4997239;28;20551;-73
2022/10/06 04:16:30;;;;;;;25.00;3.08;;;12.10;99.90;;;;;;4999018;28;20096;-72
2022/10/06 04:18:59;;;;;;;12.68;2.63;;;12.10;99.90;;;;;;4998218;28;20034;-73
2022/10/06 04:21:25;;;;;;;11.82;2.00;;;12.10;99.90;;;;;;5000875;28;20041;-73
2022/10/06 04:24:00;;;;;;;15.88;2.83;;;12.20;99.90;;;;;;5002318;28;20453;-73
2022/10/06 04:26:33;;;;;;;17.40;3.13;;;12.20;99.90;;;;;;5003209;28;20128;-73
2022/10/06 04:29:01;;;;;;;11.77;2.70;;;12.20;99.90;;;;;;5002774;28;20054;-73
2022/10/06 04:31:33;;;;;;;14.32;3.00;;;12.20;99.90;;;;;;4994729;28;20045;-72
2022/10/06 04:34:00;;;;;;;14.43;2.45;;;12.20;99.90;;;;;;5002090;28;20075;-72
2022/10/06 04:36:35;;;;;;;13.65;2.38;;;12.10;99.90;;;;;;5002565;28;20152;-72
2022/10/06 04:39:02;;;;;;;18.05;2.90;;;12.10;99.90;;;;;;5003706;28;20045;-72
2022/10/06 04:41:35;;;;;;;16.05;2.88;;;12.10;99.90;;;;;;5001500;28;20448;-73
2022/10/06 04:44:02;;;;;;;13.10;2.78;;;12.10;99.90;;;;;;4999310;28;20519;-73
2022/10/06 04:46:30;;;;;;;10.45;2.30;;;12.00;99.90;;;;;;4998292;28;20125;-72
2022/10/06 04:48:56;;;;;;;16.95;2.50;;;12.00;99.90;;;;;;4998633;28;20076;-72
2022/10/06 04:51:23;;;;;;;17.38;3.28;;;12.00;99.90;;;;;;5004256;28;20413;-72
2022/10/06 04:53:49;;;;;;;12.45;2.60;;;12.00;99.90;;;;;;4998251;28;20034;-72
2022/10/06 04:56:17;;;;;;;14.60;2.28;;;11.80;99.90;;;;;;4995180;28;20132;-72
2022/10/06 04:58:45;;;;;;;14.18;2.30;;;11.90;99.90;;;;;;4997146;28;20523;-72
2022/10/06 05:01:18;;;;;;;13.48;3.03;;;11.80;99.90;;;;;;4997932;28;20062;-73
2022/10/06 05:03:45;;;;;;;11.60;2.30;;;11.90;99.90;;;;;;5000333;28;20096;-72
2022/10/06 05:06:15;;;;;;;15.25;2.72;;;11.90;99.90;;;;;;4997169;28;20129;-72
2022/10/06 05:08:42;;;;;;;18.50;2.95;;;11.90;99.90;;;;;;5002100;28;20046;-70
2022/10/06 05:11:11;;;;;;;13.43;2.70;;;11.80;99.90;;;;;;5002615;28;20045;-73
2022/10/06 05:13:38;;;;;;;15.45;2.58;;;11.90;99.90;;;;;;4996486;28;20072;-72
2022/10/06 05:16:06;;;;;;;12.23;2.47;;;11.90;99.90;;;;;;4992467;28;20038;-72
2022/10/06 05:18:36;;;;;;;13.88;2.70;;;12.00;99.90;;;;;;5004779;28;20529;-72
2022/10/06 05:21:05;;;;;;;18.08;3.17;;;12.00;99.90;;;;;;5000801;28;20038;-73
2022/10/06 05:23:33;;;;;;;16.70;3.58;;;12.00;99.90;;;;;;4999200;28;20058;-68
2022/10/06 05:26:00;;;;;;;23.02;2.92;;;12.00;99.90;;;;;;5002951;28;20221;-71
2022/10/06 05:28:28;;;;;;;17.30;2.85;;;12.10;99.90;;;;;;5000620;28;20041;-72
2022/10/06 05:31:09;;;;;;;11.30;2.33;;;12.10;99.90;;;;;;5005612;28;20174;-71
2022/10/06 05:33:35;;;;;;;15.18;2.97;;;12.20;99.90;;;;;;5000299;28;20056;-73
2022/10/06 05:36:04;;;;;;;12.77;2.75;;;12.10;99.90;;;;;;5001807;28;20095;-70
2022/10/06 05:38:30;;;;;;;12.20;2.40;;;12.00;99.90;;;;;;5002532;28;20038;-71
2022/10/06 05:41:10;;;;;;;14.70;3.30;;;12.00;99.90;;;;;;5013018;28;20050;-71
2022/10/06 05:43:36;;;;;;;21.73;3.22;;;12.00;99.90;;;;;;5008782;28;20068;-71
2022/10/06 05:46:05;;;;;;;16.88;2.88;;;11.90;99.90;;;;;;5008015;28;20046;-70
2022/10/06 05:48:31;;;;;;;23.20;3.08;;;11.90;99.90;;;;;;5011402;28;20045;-72
2022/10/06 05:51:04;;;;;;;15.88;2.78;;;11.90;99.90;;;;;;5007607;28;20054;-73
2022/10/06 05:53:32;;;;;;;17.70;3.00;;;11.80;99.90;;;;;;5002961;28;20490;-74
2022/10/06 05:56:06;;;;;;;17.77;2.67;;;11.90;99.90;;;;;;5001922;28;20552;-72
2022/10/06 05:58:32;;;;;;;15.65;2.83;;;11.80;99.90;;;;;;4998939;28;20050;-72
2022/10/06 06:01:16;;;;;;;15.13;2.47;;;11.80;99.90;;;;;;5002320;28;20222;-73
2022/10/06 06:03:47;;;;;;;16.10;2.92;;;11.80;99.90;;;;;;5001576;28;20034;-72
2022/10/06 06:06:24;;;;;;;12.93;2.30;;;11.80;99.90;;;;;;4994625;28;20513;-73
2022/10/06 06:09:19;;;;;;;13.13;3.25;;;11.80;99.90;;;;;;5006226;28;20089;-73
2022/10/06 06:11:48;;;;;;;17.27;3.58;;;11.90;99.90;;;;;;4996285;28;20050;-72
2022/10/06 06:14:16;;;;;;;17.45;2.72;;;11.90;99.90;;;;;;5001836;28;20038;-73
2022/10/06 06:16:43;;;;;;;16.33;2.60;;;11.90;99.90;;;;;;5003145;28;20497;-73
2022/10/06 06:19:11;;;;;;;18.05;3.05;;;11.90;99.90;;;;;;5000015;28;20050;-73
2022/10/06 06:21:37;;;;;;;17.17;3.65;;;11.90;99.90;;;;;;5005491;28;20042;-72
2022/10/06 06:24:04;;;;;;;17.50;2.75;;;11.90;99.90;;;;;;5007780;28;20050;-73
2022/10/06 06:26:32;;;;;;;16.30;3.70;;;11.90;99.90;;;;;;5001684;28;20057;-72
2022/10/06 06:29:02;;;;;;;15.55;2.45;;;11.90;99.90;;;;;;4993385;28;20057;-74
2022/10/06 06:31:32;;;;;;;14.68;3.28;;;11.90;99.90;;;;;;4998150;28;20057;-74
2022/10/06 06:34:01;;;;;;;10.48;2.58;;;11.90;99.90;;;;;;4998043;28;20046;-72
2022/10/06 06:36:35;;;;;;;16.98;2.83;;;11.90;99.90;;;;;;5003374;28;20065;-73
2022/10/06 06:39:07;;;;;;;19.88;3.20;;;11.90;99.90;;;;;;5001509;28;20070;-73
2022/10/06 06:41:38;;;;;;;12.57;2.58;;;11.90;99.90;;;;;;4997548;28;20057;-73
2022/10/06 06:44:06;;;;;;;17.92;3.17;;;11.90;99.90;;;;;;4994187;28;20050;-73
2022/10/06 06:46:33;;;;;;;15.55;3.03;;;11.90;99.90;;;;;;5007917;28;20046;-74
2022/10/06 06:49:03;;;;;;;15.30;2.55;;;12.00;99.90;;;;;;5000157;28;20093;-72
2022/10/06 06:51:32;;;;;;;14.30;2.60;;;12.00;99.90;;;;;;4998538;28;20037;-73
2022/10/06 06:53:59;;;;;;;19.83;2.90;;;12.00;99.90;;;;;;5007353;28;20230;-73
2022/10/06 06:56:25;;;;;;;13.85;2.80;;;12.10;99.90;;;;;;5008434;28;20046;-73
2022/10/06 06:58:51;;;;;;;16.13;2.95;;;12.10;99.90;;;;;;5002501;28;20056;-72
2022/10/06 07:01:18;;;;;;;15.75;2.72;;;12.20;99.90;;;;;;5005606;28;20176;-73
2022/10/06 07:03:51;;;;;;;18.83;2.97;;;12.20;99.90;;;;;;5007576;28;20393;-73
2022/10/06 07:06:17;;;;;;;23.13;3.90;;;12.40;99.90;;;;;;5005401;28;20509;-73
2022/10/06 07:08:45;;;;;;;22.60;3.50;;;12.50;99.90;;;;;;5005326;28;20096;-73
2022/10/06 07:11:18;;;;;;;16.55;3.17;;;12.50;99.90;;;;;;5002309;28;20591;-73
2022/10/06 07:13:45;;;;;;;15.52;3.20;;;12.60;99.90;;;;;;5006514;28;20076;-72
2022/10/06 07:27:22;;;;;;;10.68;1.88;;;13.00;99.90;;;;;;4989168;28;20046;-73
2022/10/06 07:29:52;;;;;;;12.43;2.50;;;13.10;99.90;;;;;;4999181;28;20064;-73
2022/10/06 07:32:20;;;;;;;14.90;2.35;;;13.20;99.90;;;;;;5006258;28;20520;-73
2022/10/06 07:34:48;;;;;;;11.70;1.98;;;13.20;99.90;;;;;;4993173;28;20053;-73
2022/10/06 07:37:14;;;;;;;13.23;2.40;;;13.20;99.90;;;;;;5003066;28;20501;-73
2022/10/06 07:39:39;;;;;;;16.10;2.35;;;13.40;99.90;;;;;;4994965;28;20062;-72
2022/10/06 07:42:13;;;;;;;13.77;2.42;;;13.40;99.90;;;;;;4995466;28;20049;-72
2022/10/06 07:45:36;;;;;;;13.70;3.20;;;13.40;99.90;;;;;;5002710;28;22143;-72
2022/10/06 07:47:30;;;;;;;13.50;2.47;;;13.50;99.90;;;;;;4998352;28;20049;-72
2022/10/06 07:49:57;;;;;;;12.15;2.85;;;13.60;99.90;;;;;;5007629;28;20038;-72
2022/10/06 07:52:23;;;;;;;18.80;2.60;;;13.70;99.90;;;;;;5004526;28;20038;-74
2022/10/06 07:54:49;;;;;;;17.92;2.50;;;13.70;99.90;;;;;;5001210;28;20042;-73
2022/10/06 07:57:15;;;;;;;10.00;2.25;;;13.70;99.90;;;;;;5016422;28;20116;-72
2022/10/06 07:59:40;;;;;;;17.20;2.72;;;13.80;99.90;;;;;;5002750;28;20544;-72
2022/10/06 08:02:06;;;;;;;14.93;2.78;;;13.80;99.90;;;;;;5000873;28;20465;-73
2022/10/06 08:04:32;;;;;;;13.75;2.72;;;13.80;99.90;;;;;;5007636;28;20042;-72
2022/10/06 08:06:58;;;;;;;12.20;2.72;;;13.90;99.90;;;;;;5004360;28;20383;-73
2022/10/06 08:09:23;;;;;;;12.90;2.63;;;13.90;99.90;;;;;;4997980;28;20054;-72
2022/10/06 08:11:49;;;;;;;18.40;2.95;;;14.00;99.90;;;;;;4991826;28;20402;-73
2022/10/06 08:14:15;;;;;;;13.52;2.80;;;14.10;99.90;;;;;;4995482;28;20484;-72
2022/10/06 08:16:41;;;;;;;12.23;2.85;;;14.10;99.90;;;;;;4997017;28;20066;-73
2022/10/06 08:19:06;;;;;;;14.02;2.05;;;14.10;99.90;;;;;;4989254;28;20512;-72
2022/10/06 08:21:37;;;;;;;12.18;2.15;;;14.20;99.90;;;;;;4994446;28;20275;-72
2022/10/06 08:24:03;;;;;;;13.95;2.58;;;14.20;99.90;;;;;;4999088;28;20045;-72
2022/10/06 08:26:30;;;;;;;10.63;1.90;;;14.20;99.90;;;;;;4996387;28;20466;-72
2022/10/06 08:29:01;;;;;;;14.25;2.92;;;14.30;99.90;;;;;;4999062;28;20550;-73
2022/10/06 08:31:28;;;;;;;12.82;1.60;;;14.30;99.90;;;;;;4998249;28;20415;-73
2022/10/06 08:33:56;;;;;;;14.60;2.10;;;14.40;99.90;;;;;;5001254;28;20066;-73
2022/10/06 08:36:23;;;;;;;11.60;1.98;;;14.40;99.90;;;;;;4998229;28;20089;-73
2022/10/06 08:38:49;;;;;;;13.88;2.65;;;14.40;99.90;;;;;;5003517;28;20065;-73
2022/10/06 08:41:38;;;;;;;11.30;2.60;;;14.40;99.90;;;;;;5000799;28;20454;-73
2022/10/06 08:44:17;;;;;;;12.07;2.90;;;14.40;99.90;;;;;;4997972;28;20489;-73
2022/10/06 08:46:56;;;;;;;10.20;2.25;;;14.50;99.90;;;;;;4996538;28;20042;-73
2022/10/06 08:49:26;;;;;;;15.00;3.17;;;14.50;99.90;;;;;;4999082;28;20478;-73
2022/10/06 08:52:16;;;;;;;13.13;2.40;;;14.50;99.90;;;;;;4998702;28;20374;-72
2022/10/06 08:55:06;;;;;;;12.20;2.40;;;14.50;99.90;;;;;;4999519;28;20397;-73
2022/10/06 08:57:37;;;;;;;17.20;2.15;;;14.60;99.90;;;;;;4996575;28;20479;-73
2022/10/06 09:00:12;;;;;;;12.85;3.03;;;14.70;99.90;;;;;;4996843;28;20108;-72
2022/10/06 09:02:44;;;;;;;14.60;2.88;;;14.70;99.90;;;;;;4998456;28;20383;-73
2022/10/06 09:05:18;;;;;;;12.18;1.95;;;14.80;99.90;;;;;;4998978;28;20075;-73
2022/10/06 09:08:23;;;;;;;12.02;2.28;;;14.90;99.90;;;;;;4997007;28;20060;-74
2022/10/06 09:11:02;;;;;;;11.73;2.17;;;15.00;99.90;;;;;;4998505;28;20620;-73
2022/10/06 09:13:38;;;;;;;14.88;2.17;;;15.10;99.90;;;;;;5001239;28;20050;-72
2022/10/06 09:16:16;;;;;;;9.07;2.13;;;15.10;99.90;;;;;;5002904;28;20065;-72
2022/10/06 09:18:50;;;;;;;10.85;1.75;;;15.20;99.90;;;;;;5003680;28;20313;-73
2022/10/06 09:21:18;;;;;;;15.00;2.40;;;15.20;99.90;;;;;;5004689;28;20060;-76
2022/10/06 09:23:52;;;;;;;10.07;2.00;;;15.20;99.90;;;;;;5010515;28;20080;-75
2022/10/06 09:26:22;;;;;;;9.93;2.30;;;15.30;99.90;;;;;;4998847;28;20049;-74
2022/10/06 09:28:49;;;;;;;15.10;2.13;;;15.30;99.90;;;;;;5006145;28;20042;-73
2022/10/06 09:31:22;;;;;;;8.20;1.95;;;15.30;99.90;;;;;;4997150;28;20081;-74
2022/10/06 09:33:54;;;;;;;10.55;2.08;;;15.40;99.90;;;;;;5004679;28;20128;-74
2022/10/06 09:36:20;;;;;;;8.98;3.08;;;15.40;99.90;;;;;;4998838;28;20505;-74
2022/10/06 09:38:54;;;;;;;12.68;2.30;;;15.50;99.90;;;;;;5005372;28;20046;-74
2022/10/06 09:41:49;;;;;;;10.20;2.13;;;15.60;99.90;;;;;;4994133;28;20045;-74
2022/10/06 09:44:23;;;;;;;9.13;1.55;;;15.60;99.90;;;;;;4995817;28;20064;-74
2022/10/06 09:46:51;;;;;;;16.13;3.22;;;15.70;99.90;;;;;;5003298;28;20046;-73
2022/10/06 09:49:22;;;;;;;9.75;1.90;;;15.60;99.90;;;;;;5003264;28;20057;-73
2022/10/06 09:52:15;;;;;;;10.50;2.83;;;15.60;99.90;;;;;;5003524;28;20418;-73
2022/10/06 09:54:44;;;;;;;10.73;1.90;;;15.60;99.90;;;;;;5000966;28;20038;-72
2022/10/06 09:57:23;;;;;;;17.20;2.40;;;15.70;99.90;;;;;;4999508;28;20305;-73
2022/10/06 09:59:50;;;;;;;13.02;2.00;;;15.70;99.90;;;;;;4996934;28;21627;-73
2022/10/06 10:02:35;;;;;;;9.60;1.77;;;15.70;99.90;;;;;;5001521;28;20397;-73
2022/10/06 10:05:05;;;;;;;10.95;2.22;;;15.60;99.90;;;;;;5000495;28;20050;-73
2022/10/06 10:07:34;;;;;;;16.58;2.45;;;15.60;99.90;;;;;;4995424;28;20124;-73
2022/10/06 10:10:34;;;;;;;12.30;2.05;;;15.60;99.90;;;;;;4999231;28;20515;-73
2022/10/06 10:13:00;;;;;;;12.05;2.30;;;15.60;99.90;;;;;;4991080;28;20077;-71
2022/10/06 10:15:32;;;;;;;11.13;2.00;;;15.60;99.90;;;;;;5000337;28;20810;-72
2022/10/06 10:17:58;;;;;;;13.02;2.28;;;15.60;99.90;;;;;;5004943;28;20042;-72
2022/10/06 10:20:24;;;;;;;7.70;2.30;;;15.50;99.90;;;;;;4999401;28;20456;-72
2022/10/06 10:22:51;;;;;;;12.07;1.73;;;15.60;99.90;;;;;;5001271;28;20272;-73
2022/10/06 10:25:43;;;;;;;11.75;2.45;;;15.70;99.90;;;;;;4998184;28;20061;-73
2022/10/06 10:28:49;;;;;;;11.05;1.80;;;15.70;99.90;;;;;;4995513;28;20060;-72
2022/10/06 10:31:29;;;;;;;8.60;2.30;;;15.80;99.90;;;;;;4998443;28;20042;-72
2022/10/06 10:34:17;;;;;;;11.52;2.38;;;15.90;99.90;;;;;;5000897;28;20038;-72
2022/10/06 10:36:56;;;;;;;11.35;1.73;;;15.90;99.90;;;;;;5004641;28;22199;-73
2022/10/06 10:39:38;;;;;;;10.02;2.05;;;16.00;99.90;;;;;;4999855;28;20042;-73
2022/10/06 10:42:36;;;;;;;9.18;1.50;;;16.00;99.90;;;;;;4997912;28;20386;-72
2022/10/06 10:45:06;;;;;;;10.18;1.60;;;16.10;99.90;;;;;;4989310;28;20049;-72
2022/10/06 10:47:43;;;;;;;10.05;2.20;;;16.20;99.90;;;;;;5002682;28;20049;-74
2022/10/06 10:50:18;;;;;;;11.93;2.05;;;16.10;99.90;;;;;;4997579;28;20045;-72
2022/10/06 10:52:47;;;;;;;11.57;1.98;;;16.20;99.90;;;;;;4998323;28;20053;-73
2022/10/06 10:55:20;;;;;;;9.38;1.80;;;16.20;99.90;;;;;;4999275;28;20042;-73
2022/10/06 10:57:47;;;;;;;;;;;16.30;99.90;;;;;;5000246;28;20125;-71
2022/10/06 11:00:19;;;;;;;9.70;1.77;;;16.40;99.90;;;;;;5003034;28;19964;-72
2022/10/06 11:02:45;;;;;;;11.65;2.13;;;16.40;99.90;;;;;;4995552;28;20532;-72
2022/10/06 11:05:35;;;;;;;5.95;1.55;;;16.30;99.90;;;;;;5007007;28;20046;-73
2022/10/06 11:08:18;;;;;;;10.35;1.67;;;16.40;99.90;;;;;;5008996;28;20463;-72
2022/10/06 11:10:50;;;;;;;7.32;2.08;;;16.40;99.90;;;;;;4996402;28;20046;-71
2022/10/06 11:13:38;;;;;;;9.77;1.60;;;16.50;99.90;;;;;;5001019;28;20405;-73
2022/10/06 11:16:36;;;;;;;12.68;1.80;;;16.50;99.90;;;;;;5002303;28;20505;-73
2022/10/06 11:19:13;;;;;;;11.48;2.33;;;16.50;99.90;;;;;;5003495;28;20050;-73
2022/10/06 11:22:01;;;;;;;10.18;2.40;;;16.50;99.90;;;;;;5002713;28;20128;-74
2022/10/06 11:24:30;;;;;;;10.77;1.98;;;16.50;99.90;;;;;;5001107;28;20501;-73
2022/10/06 11:27:34;;;;;;;11.98;2.17;;;16.40;99.90;;;;;;4991300;28;20111;-73
2022/10/06 11:30:12;;;;;;;9.85;1.65;;;16.40;99.90;;;;;;5000409;28;20061;-74
2022/10/06 11:33:03;;;;;;;13.98;1.67;;;16.40;99.90;;;;;;5002161;28;20057;-73
2022/10/06 11:35:35;;;;;;;7.97;2.28;;;16.40;99.90;;;;;;5002152;28;20041;-73
2022/10/06 11:38:18;;;;;;;12.07;2.00;;;16.40;99.90;;;;;;4999345;28;20074;-72
2022/10/06 11:41:06;;;;;;;;;;;16.40;99.90;;;;;;5002377;28;20054;-71
2022/10/06 11:43:42;;;;;;;6.72;1.40;;;16.50;99.90;;;;;;4996320;28;19929;-72
2022/10/06 11:46:32;;;;;;;10.98;2.60;;;16.60;99.90;;;;;;4993341;28;20089;-72
2022/10/06 11:49:31;;;;;;;7.88;1.60;;;16.70;99.90;;;;;;5007537;28;20398;-70
2022/10/06 11:52:22;;;;;;;7.10;1.48;;;16.70;99.90;;;;;;5000388;28;20476;-70
2022/10/06 11:54:52;;;;;;;7.60;1.70;;;16.70;99.90;;;;;;4997337;28;20050;-71
2022/10/06 11:57:21;;;;;;;11.25;2.28;;;16.60;99.90;;;;;;4996481;28;20566;-71
2022/10/06 11:59:51;;;;;;;10.00;1.77;;;16.60;99.90;;;;;;4999832;28;20839;-71
2022/10/06 12:02:46;;;;;;;6.63;1.40;;;16.60;99.90;;;;;;4994061;28;20365;-72
2022/10/06 12:05:13;;;;;;;8.43;1.95;;;16.60;99.90;;;;;;4995155;28;20132;-72
2022/10/06 12:07:56;;;;;;;9.48;1.88;;;16.60;99.90;;;;;;5002008;28;20058;-72
2022/10/06 12:10:28;;;;;;;12.15;3.00;;;16.50;99.90;;;;;;4995741;28;20129;-71
2022/10/06 12:13:26;;;;;;;9.82;1.90;;;16.30;99.90;;;;;;5003186;28;20057;-71
2022/10/06 12:16:10;;;;;;;9.95;1.73;;;16.10;99.90;;;;;;5004506;28;20052;-72
2022/10/06 12:18:40;;;;;;;7.80;1.42;;;15.90;99.90;;;;;;5004684;28;20080;-71
2022/10/06 12:21:22;;;;;;;17.42;2.45;;;15.90;99.90;;;;;;4998952;28;20074;-71
2022/10/06 12:24:01;;;;;;;11.68;2.22;;;15.80;99.90;;;;;;4995300;28;20053;-72
2022/10/06 12:26:45;;;;;;;7.40;1.65;;;15.70;99.90;;;;;;4997674;28;20042;-72
2022/10/06 12:29:33;;;;;;;7.85;1.60;;;15.70;99.90;;;;;;4999588;28;21526;-71
2022/10/06 12:32:42;;;;;;;8.00;2.00;;;15.60;99.90;;;;;;5007755;28;20046;-68
2022/10/06 12:35:23;;;;;;;12.52;1.70;;;15.80;99.90;;;;;;4985834;28;20473;-71
2022/10/06 12:37:54;;;;;;;10.15;1.73;;;15.90;99.90;;;;;;5002989;28;20042;-71
2022/10/06 12:40:40;;;;;;;8.93;2.10;;;15.90;99.90;;;;;;5002938;28;20042;-72
2022/10/06 12:43:18;;;;;;;7.57;1.77;;;16.00;99.90;;;;;;4999098;28;20065;-71
2022/10/06 12:45:46;;;;;;;6.88;2.20;;;16.20;99.90;;;;;;4994622;28;20046;-71
2022/10/06 12:48:23;;;;;;;9.18;2.08;;;16.40;99.90;;;;;;5007456;28;20549;-73
2022/10/06 12:50:56;;;;;;;7.07;1.73;;;16.50;99.90;;;;;;5009942;28;20048;-72
2022/10/06 12:53:33;;;;;;;6.57;1.65;;;16.50;99.90;;;;;;5005291;28;20133;-71
2022/10/06 12:56:09;;;;;;;9.90;1.83;;;16.50;99.90;;;;;;5000773;28;20181;-72
2022/10/06 12:58:34;;;;;;;5.50;1.42;;;16.60;99.90;;;;;;5004341;28;20056;-70
2022/10/06 13:01:04;;;;;;;9.52;1.80;;;16.60;99.90;;;;;;5007497;28;20461;-71
2022/10/06 13:03:31;;;;;;;10.20;1.80;;;16.60;99.90;;;;;;4990574;28;20406;-70
2022/10/06 13:06:02;;;;;;;6.47;1.42;;;16.70;99.90;;;;;;4990365;28;20042;-70
2022/10/06 13:08:36;;;;;;;10.23;1.92;;;16.70;99.90;;;;;;5005214;28;20034;-71
2022/10/06 13:11:23;;;;;;;11.77;2.10;;;16.80;99.90;;;;;;4996602;28;20252;-71
2022/10/06 13:13:54;;;;;;;9.68;2.85;;;16.80;99.90;;;;;;4998136;28;20080;-72